Hiyodori — JD2366 — position and weather

sailwx.info

Track history (hours):
 
Tides and Currents Weather Stations Pressure Air Temp Water Temp Dewpoint Dewpoint Depression Visibility Wind Speed Wind Dir Waves Ship Positions

Hiyodori

Last reported at 2014-Dec-22 02:33 UTC. Time now 2014-Dec-22 03:30 UTC.
Position N 34°41' E 135°17'.

Length 88 m; draft 3.6 m.

Type: Cargo ship. MMSI: 431000132.

Date/timePositionNaut miles runAvg speedWind from/ knotsBaromVisibWave heightAir tempDewpointWater temp
2014-Dec-22 02:33N 34°41' E 135°17'0 0.0
2014-Dec-22 01:33N 34°41' E 135°17'1 0.7
2014-Dec-22 00:34N 34°41' E 135°17'0 0.0
2014-Dec-21 23:33N 34°41' E 135°17'3 3.5
2014-Dec-21 22:33N 34°39' E 135°20'4 4.4
2014-Dec-21 21:33N 34°35' E 135°17'1312.5
2014-Dec-21 20:33N 34°26' E 135°07'1212.3
2014-Dec-21 19:33N 34°15' E 134°60'1211.5
2014-Dec-21 18:32N 34°03' E 135°01'244 9.1
2014-Dec-20 15:33N 35°12' E 139°46'1110.8
2014-Dec-20 14:33N 35°22' E 139°41'2 1.9
2014-Dec-20 13:33N 35°24' E 139°41'0 0.0
2014-Dec-20 12:34N 35°24' E 139°41'1 1.2
2014-Dec-20 11:33N 35°23' E 139°41'2 2.0
2014-Dec-20 10:33N 35°23' E 139°44'0 0.0
2014-Dec-20 09:33N 35°23' E 139°44'0 0.0
2014-Dec-20 08:34N 35°23' E 139°44'0 0.0
2014-Dec-20 07:33N 35°23' E 139°44'0 0.0
2014-Dec-20 06:33N 35°23' E 139°44'0 0.0
2014-Dec-20 05:33N 35°23' E 139°44'0 0.1
2014-Dec-20 04:34N 35°23' E 139°44'0 0.1
2014-Dec-20 03:33N 35°23' E 139°44'1310.3
2014-Dec-20 02:21N 35°11' E 139°47'2 0.1
2014-Dec-18 14:07N 35°13' E 139°46'611.6
2014-Dec-18 13:33N 35°19' E 139°43'4 3.8
2014-Dec-18 12:34N 35°22' E 139°44'0 0.0
2014-Dec-18 11:33N 35°22' E 139°44'0 0.0
2014-Dec-18 10:34N 35°22' E 139°44'0 0.0
2014-Dec-18 09:34N 35°22' E 139°44'0 0.0
2014-Dec-18 08:33N 35°23' E 139°44'0 0.0
2014-Dec-18 07:34N 35°23' E 139°44'0 0.1
2014-Dec-18 06:34N 35°23' E 139°44'0 0.0
2014-Dec-18 05:34N 35°23' E 139°44'0 0.0
2014-Dec-18 04:34N 35°23' E 139°44'0 0.1
2014-Dec-18 03:33N 35°23' E 139°44'0 0.0
2014-Dec-18 02:34N 35°23' E 139°44'0 0.1
2014-Dec-18 01:34N 35°23' E 139°44'0 0.0
2014-Dec-18 00:34N 35°23' E 139°44'0 0.0
2014-Dec-17 23:33N 35°23' E 139°44'0 0.1
2014-Dec-17 22:34N 35°23' E 139°44'0 0.0
2014-Dec-17 21:34N 35°23' E 139°44'0 0.0
2014-Dec-17 20:34N 35°23' E 139°44'0 0.0
2014-Dec-17 19:32N 35°23' E 139°44'0 0.0
2014-Dec-17 18:33N 35°23' E 139°44'0 0.1
2014-Dec-17 17:34N 35°23' E 139°44'0 0.0
2014-Dec-17 16:34N 35°23' E 139°44'0 0.0
2014-Dec-17 15:34N 35°23' E 139°44'3 3.3
2014-Dec-17 14:34N 35°26' E 139°42'1 1.3
2014-Dec-17 13:33N 35°26' E 139°41'0 0.0
2014-Dec-17 12:33N 35°26' E 139°41'0 0.0
2014-Dec-17 11:33N 35°26' E 139°41'1 1.5
2014-Dec-17 10:33N 35°26' E 139°43'2 2.5
2014-Dec-17 09:34N 35°24' E 139°45'0 0.0
2014-Dec-17 08:33N 35°24' E 139°45'0 0.0
2014-Dec-17 07:32N 35°24' E 139°45'0 0.0
2014-Dec-17 06:33N 35°24' E 139°45'0 0.0
2014-Dec-17 05:32N 35°24' E 139°45'0 0.0
2014-Dec-17 04:32N 35°24' E 139°45'0 0.0
2014-Dec-17 03:31N 35°24' E 139°45'0 0.0
2014-Dec-17 02:33N 35°24' E 139°45'0 0.0
2014-Dec-17 01:33N 35°24' E 139°45'0 0.0
2014-Dec-17 00:33N 35°24' E 139°45'0 0.0
2014-Dec-16 23:33N 35°24' E 139°45'0 0.0
2014-Dec-16 22:33N 35°24' E 139°45'0 0.0
2014-Dec-16 21:33N 35°24' E 139°45'0 0.0
2014-Dec-16 20:34N 35°24' E 139°45'0 0.0
2014-Dec-16 19:34N 35°24' E 139°45'0 0.0
2014-Dec-16 18:33N 35°24' E 139°45'0 0.0
2014-Dec-16 17:33N 35°24' E 139°45'0 0.0
2014-Dec-16 16:33N 35°24' E 139°45'0 0.0
2014-Dec-16 15:33N 35°24' E 139°45'0 0.0
2014-Dec-16 14:33N 35°24' E 139°45'0 0.1
2014-Dec-16 13:31N 35°24' E 139°45'0 0.1
2014-Dec-16 12:33N 35°24' E 139°45'0 0.1
2014-Dec-16 11:33N 35°24' E 139°45'0 0.1
2014-Dec-16 10:33N 35°24' E 139°45'0 0.0
2014-Dec-16 09:34N 35°24' E 139°45'0 0.0
2014-Dec-16 08:33N 35°24' E 139°45'3 3.5
2014-Dec-16 07:34N 35°23' E 139°41'2 2.3
2014-Dec-16 06:33N 35°25' E 139°43'12 4.9
2014-Dec-16 04:10N 35°36' E 139°46'5 6.4
2014-Dec-16 03:27N 35°34' E 139°51'6 6.8
2014-Dec-16 02:30N 35°28' E 139°50'1410.2
2014-Dec-16 01:09N 35°14' E 139°47'  
2014-Dec-13 12:15N 35°13' E 139°46'912.3
2014-Dec-13 11:33N 35°21' E 139°42'6 5.8
2014-Dec-13 10:34N 35°26' E 139°41'0 0.0
2014-Dec-13 09:34N 35°26' E 139°41'1 1.0
2014-Dec-13 08:33N 35°27' E 139°42'3 2.7
2014-Dec-13 07:33N 35°24' E 139°41'0 0.0
2014-Dec-13 06:33N 35°24' E 139°41'6 6.3
2014-Dec-13 05:33N 35°29' E 139°45'1 1.3
2014-Dec-13 04:33N 35°28' E 139°45'1110.8
2014-Dec-13 03:33N 35°17' E 139°46'  
Track history (hours):
 
Tides and Currents Weather Stations Pressure Air Temp Water Temp Dewpoint Dewpoint Depression Visibility Wind Speed Wind Dir Waves Ship Positions

Hiyodori

Last reported at 2014-Dec-22 02:33 UTC. Time now 2014-Dec-22 03:30 UTC.
Position N 34°41' E 135°17'.

Length 88 m; draft 3.6 m.

Type: Cargo ship. MMSI: 431000132.

Date/timePositionNaut miles runAvg speedWind from/ knotsBaromVisibWave heightAir tempDewpointWater temp
2014-Dec-22 02:33N 34°41' E 135°17'0 0.0
2014-Dec-22 01:33N 34°41' E 135°17'1 0.7
2014-Dec-22 00:34N 34°41' E 135°17'0 0.0
2014-Dec-21 23:33N 34°41' E 135°17'3 3.5
2014-Dec-21 22:33N 34°39' E 135°20'4 4.4
2014-Dec-21 21:33N 34°35' E 135°17'1312.5
2014-Dec-21 20:33N 34°26' E 135°07'1212.3
2014-Dec-21 19:33N 34°15' E 134°60'1211.5
2014-Dec-21 18:32N 34°03' E 135°01'244 9.1
2014-Dec-20 15:33N 35°12' E 139°46'1110.8
2014-Dec-20 14:33N 35°22' E 139°41'2 1.9
2014-Dec-20 13:33N 35°24' E 139°41'0 0.0
2014-Dec-20 12:34N 35°24' E 139°41'1 1.2
2014-Dec-20 11:33N 35°23' E 139°41'2 2.0
2014-Dec-20 10:33N 35°23' E 139°44'0 0.0
2014-Dec-20 09:33N 35°23' E 139°44'0 0.0
2014-Dec-20 08:34N 35°23' E 139°44'0 0.0
2014-Dec-20 07:33N 35°23' E 139°44'0 0.0
2014-Dec-20 06:33N 35°23' E 139°44'0 0.0
2014-Dec-20 05:33N 35°23' E 139°44'0 0.1
2014-Dec-20 04:34N 35°23' E 139°44'0 0.1
2014-Dec-20 03:33N 35°23' E 139°44'1310.3
2014-Dec-20 02:21N 35°11' E 139°47'2 0.1
2014-Dec-18 14:07N 35°13' E 139°46'611.6
2014-Dec-18 13:33N 35°19' E 139°43'4 3.8
2014-Dec-18 12:34N 35°22' E 139°44'0 0.0
2014-Dec-18 11:33N 35°22' E 139°44'0 0.0
2014-Dec-18 10:34N 35°22' E 139°44'0 0.0
2014-Dec-18 09:34N 35°22' E 139°44'0 0.0
2014-Dec-18 08:33N 35°23' E 139°44'0 0.0
2014-Dec-18 07:34N 35°23' E 139°44'0 0.1
2014-Dec-18 06:34N 35°23' E 139°44'0 0.0
2014-Dec-18 05:34N 35°23' E 139°44'0 0.0
2014-Dec-18 04:34N 35°23' E 139°44'0 0.1
2014-Dec-18 03:33N 35°23' E 139°44'0 0.0
2014-Dec-18 02:34N 35°23' E 139°44'0 0.1
2014-Dec-18 01:34N 35°23' E 139°44'0 0.0
2014-Dec-18 00:34N 35°23' E 139°44'0 0.0
2014-Dec-17 23:33N 35°23' E 139°44'0 0.1
2014-Dec-17 22:34N 35°23' E 139°44'0 0.0
2014-Dec-17 21:34N 35°23' E 139°44'0 0.0
2014-Dec-17 20:34N 35°23' E 139°44'0 0.0
2014-Dec-17 19:32N 35°23' E 139°44'0 0.0
2014-Dec-17 18:33N 35°23' E 139°44'0 0.1
2014-Dec-17 17:34N 35°23' E 139°44'0 0.0
2014-Dec-17 16:34N 35°23' E 139°44'0 0.0
2014-Dec-17 15:34N 35°23' E 139°44'3 3.3
2014-Dec-17 14:34N 35°26' E 139°42'1 1.3
2014-Dec-17 13:33N 35°26' E 139°41'0 0.0
2014-Dec-17 12:33N 35°26' E 139°41'0 0.0
2014-Dec-17 11:33N 35°26' E 139°41'1 1.5
2014-Dec-17 10:33N 35°26' E 139°43'2 2.5
2014-Dec-17 09:34N 35°24' E 139°45'0 0.0
2014-Dec-17 08:33N 35°24' E 139°45'0 0.0
2014-Dec-17 07:32N 35°24' E 139°45'0 0.0
2014-Dec-17 06:33N 35°24' E 139°45'0 0.0
2014-Dec-17 05:32N 35°24' E 139°45'0 0.0
2014-Dec-17 04:32N 35°24' E 139°45'0 0.0
2014-Dec-17 03:31N 35°24' E 139°45'0 0.0
2014-Dec-17 02:33N 35°24' E 139°45'0 0.0
2014-Dec-17 01:33N 35°24' E 139°45'0 0.0
2014-Dec-17 00:33N 35°24' E 139°45'0 0.0
2014-Dec-16 23:33N 35°24' E 139°45'0 0.0
2014-Dec-16 22:33N 35°24' E 139°45'0 0.0
2014-Dec-16 21:33N 35°24' E 139°45'0 0.0
2014-Dec-16 20:34N 35°24' E 139°45'0 0.0
2014-Dec-16 19:34N 35°24' E 139°45'0 0.0
2014-Dec-16 18:33N 35°24' E 139°45'0 0.0
2014-Dec-16 17:33N 35°24' E 139°45'0 0.0
2014-Dec-16 16:33N 35°24' E 139°45'0 0.0
2014-Dec-16 15:33N 35°24' E 139°45'0 0.0
2014-Dec-16 14:33N 35°24' E 139°45'0 0.1
2014-Dec-16 13:31N 35°24' E 139°45'0 0.1
2014-Dec-16 12:33N 35°24' E 139°45'0 0.1
2014-Dec-16 11:33N 35°24' E 139°45'0 0.1
2014-Dec-16 10:33N 35°24' E 139°45'0 0.0
2014-Dec-16 09:34N 35°24' E 139°45'0 0.0
2014-Dec-16 08:33N 35°24' E 139°45'3 3.5
2014-Dec-16 07:34N 35°23' E 139°41'2 2.3
2014-Dec-16 06:33N 35°25' E 139°43'12 4.9
2014-Dec-16 04:10N 35°36' E 139°46'5 6.4
2014-Dec-16 03:27N 35°34' E 139°51'6 6.8
2014-Dec-16 02:30N 35°28' E 139°50'1410.2
2014-Dec-16 01:09N 35°14' E 139°47'  
2014-Dec-13 12:15N 35°13' E 139°46'912.3
2014-Dec-13 11:33N 35°21' E 139°42'6 5.8
2014-Dec-13 10:34N 35°26' E 139°41'0 0.0
2014-Dec-13 09:34N 35°26' E 139°41'1 1.0
2014-Dec-13 08:33N 35°27' E 139°42'3 2.7
2014-Dec-13 07:33N 35°24' E 139°41'0 0.0
2014-Dec-13 06:33N 35°24' E 139°41'6 6.3
2014-Dec-13 05:33N 35°29' E 139°45'1 1.3
2014-Dec-13 04:33N 35°28' E 139°45'1110.8
2014-Dec-13 03:33N 35°17' E 139°46'  

Dump ship's entire track history